sensor_id;sensor_type;location;lat;lon;timestamp;pressure;altitude;pressure_sealevel;temperature;humidity
58662;BME280;44432;49.786;22.760;2023-05-11T00:00:14;99741.05;;;7.31;49.72
58662;BME280;44432;49.786;22.760;2023-05-11T00:03:05;99741.12;;;7.27;49.89
58662;BME280;44432;49.786;22.760;2023-05-11T00:05:35;99742.33;;;7.22;50.07
58662;BME280;44432;49.786;22.760;2023-05-11T00:08:06;99744.90;;;7.20;50.33
58662;BME280;44432;49.786;22.760;2023-05-11T00:10:37;99746.15;;;7.16;50.20
58662;BME280;44432;49.786;22.760;2023-05-11T00:13:08;99746.43;;;7.14;50.53
58662;BME280;44432;49.786;22.760;2023-05-11T00:15:38;99747.38;;;7.12;50.74
58662;BME280;44432;49.786;22.760;2023-05-11T00:18:09;99747.41;;;7.10;50.74
58662;BME280;44432;49.786;22.760;2023-05-11T00:20:40;99745.70;;;7.08;50.67
58662;BME280;44432;49.786;22.760;2023-05-11T00:23:10;99743.22;;;7.07;50.92
58662;BME280;44432;49.786;22.760;2023-05-11T00:25:41;99744.88;;;7.05;51.12
58662;BME280;44432;49.786;22.760;2023-05-11T00:28:12;99743.20;;;6.98;51.32
58662;BME280;44432;49.786;22.760;2023-05-11T00:30:42;99749.19;;;6.97;51.08
58662;BME280;44432;49.786;22.760;2023-05-11T00:33:13;99749.05;;;6.93;51.01
58662;BME280;44432;49.786;22.760;2023-05-11T00:35:44;99745.52;;;6.90;51.13
58662;BME280;44432;49.786;22.760;2023-05-11T00:38:15;99746.05;;;6.87;51.47
58662;BME280;44432;49.786;22.760;2023-05-11T00:40:46;99744.25;;;6.83;51.31
58662;BME280;44432;49.786;22.760;2023-05-11T00:43:17;99744.08;;;6.80;51.51
58662;BME280;44432;49.786;22.760;2023-05-11T00:45:48;99743.08;;;6.78;51.39
58662;BME280;44432;49.786;22.760;2023-05-11T00:48:20;99740.08;;;6.75;51.72
58662;BME280;44432;49.786;22.760;2023-05-11T00:50:51;99738.77;;;6.72;51.61
58662;BME280;44432;49.786;22.760;2023-05-11T00:53:22;99737.24;;;6.68;51.76
58662;BME280;44432;49.786;22.760;2023-05-11T00:55:52;99737.77;;;6.64;51.77
58662;BME280;44432;49.786;22.760;2023-05-11T00:58:23;99734.33;;;6.60;51.76
58662;BME280;44432;49.786;22.760;2023-05-11T01:00:54;99730.31;;;6.57;51.90
58662;BME280;44432;49.786;22.760;2023-05-11T01:03:25;99731.02;;;6.53;52.16
58662;BME280;44432;49.786;22.760;2023-05-11T01:06:04;99733.02;;;6.52;52.18
58662;BME280;44432;49.786;22.760;2023-05-11T01:08:42;99729.19;;;6.48;52.49
58662;BME280;44432;49.786;22.760;2023-05-11T01:11:22;99731.06;;;6.44;52.61
58662;BME280;44432;49.786;22.760;2023-05-11T01:13:58;99735.20;;;6.39;52.87
58662;BME280;44432;49.786;22.760;2023-05-11T01:16:31;99741.02;;;6.31;52.89
58662;BME280;44432;49.786;22.760;2023-05-11T01:19:07;99737.95;;;6.22;53.51
58662;BME280;44432;49.786;22.760;2023-05-11T01:21:41;99736.02;;;6.15;53.70
58662;BME280;44432;49.786;22.760;2023-05-11T01:27:36;99737.17;;;6.09;54.05
58662;BME280;44432;49.786;22.760;2023-05-11T01:30:26;99737.64;;;6.07;54.26
58662;BME280;44432;49.786;22.760;2023-05-11T01:33:01;99737.30;;;6.04;54.22
58662;BME280;44432;49.786;22.760;2023-05-11T01:35:36;99736.80;;;6.02;54.53
58662;BME280;44432;49.786;22.760;2023-05-11T01:38:12;99734.21;;;5.99;54.63
58662;BME280;44432;49.786;22.760;2023-05-11T01:40:45;99736.36;;;5.95;54.82
58662;BME280;44432;49.786;22.760;2023-05-11T01:43:22;99732.90;;;5.91;54.96
58662;BME280;44432;49.786;22.760;2023-05-11T01:45:57;99731.23;;;5.89;55.05
58662;BME280;44432;49.786;22.760;2023-05-11T01:48:29;99729.68;;;5.87;55.11
58662;BME280;44432;49.786;22.760;2023-05-11T01:51:03;99733.66;;;5.84;55.20
58662;BME280;44432;49.786;22.760;2023-05-11T01:53:36;99733.75;;;5.80;55.41
58662;BME280;44432;49.786;22.760;2023-05-11T01:56:07;99732.67;;;5.76;55.51
58662;BME280;44432;49.786;22.760;2023-05-11T01:58:39;99731.95;;;5.72;55.85
58662;BME280;44432;49.786;22.760;2023-05-11T02:01:12;99732.64;;;5.69;55.90
58662;BME280;44432;49.786;22.760;2023-05-11T02:03:44;99734.98;;;5.65;55.85
58662;BME280;44432;49.786;22.760;2023-05-11T02:06:17;99736.23;;;5.63;56.02
58662;BME280;44432;49.786;22.760;2023-05-11T02:08:50;99738.73;;;5.61;56.21
58662;BME280;44432;49.786;22.760;2023-05-11T02:11:23;99742.23;;;5.59;56.25
58662;BME280;44432;49.786;22.760;2023-05-11T02:13:57;99735.34;;;5.57;56.38
58662;BME280;44432;49.786;22.760;2023-05-11T02:16:29;99738.37;;;5.59;56.57
58662;BME280;44432;49.786;22.760;2023-05-11T02:19:01;99737.79;;;5.58;56.50
58662;BME280;44432;49.786;22.760;2023-05-11T02:21:32;99738.09;;;5.55;56.68
58662;BME280;44432;49.786;22.760;2023-05-11T02:24:05;99744.73;;;5.55;56.77
58662;BME280;44432;49.786;22.760;2023-05-11T02:26:37;99744.05;;;5.53;56.87
58662;BME280;44432;49.786;22.760;2023-05-11T02:29:07;99742.42;;;5.49;56.96
58662;BME280;44432;49.786;22.760;2023-05-11T02:31:41;99743.88;;;5.46;57.09
58662;BME280;44432;49.786;22.760;2023-05-11T02:34:19;99747.98;;;5.40;57.27
58662;BME280;44432;49.786;22.760;2023-05-11T02:36:54;99744.65;;;5.36;57.43
58662;BME280;44432;49.786;22.760;2023-05-11T02:39:32;99751.80;;;5.33;57.57
58662;BME280;44432;49.786;22.760;2023-05-11T02:42:10;99748.47;;;5.30;57.82
58662;BME280;44432;49.786;22.760;2023-05-11T02:44:48;99750.17;;;5.25;57.88
58662;BME280;44432;49.786;22.760;2023-05-11T02:47:21;99750.30;;;5.22;58.10
58662;BME280;44432;49.786;22.760;2023-05-11T02:49:56;99747.83;;;5.19;58.16
58662;BME280;44432;49.786;22.760;2023-05-11T02:52:27;99749.80;;;5.17;58.30
58662;BME280;44432;49.786;22.760;2023-05-11T02:55:00;99754.32;;;5.14;58.32
58662;BME280;44432;49.786;22.760;2023-05-11T02:57:32;99751.89;;;5.13;58.49
58662;BME280;44432;49.786;22.760;2023-05-11T03:00:04;99752.00;;;5.12;58.58
58662;BME280;44432;49.786;22.760;2023-05-11T03:02:34;99753.98;;;5.11;58.82
58662;BME280;44432;49.786;22.760;2023-05-11T03:05:06;99755.98;;;5.10;59.02
58662;BME280;44432;49.786;22.760;2023-05-11T03:07:37;99759.19;;;5.08;59.07
58662;BME280;44432;49.786;22.760;2023-05-11T03:10:09;99754.85;;;5.05;59.32
58662;BME280;44432;49.786;22.760;2023-05-11T03:12:40;99758.19;;;5.05;59.46
58662;BME280;44432;49.786;22.760;2023-05-11T03:15:11;99762.77;;;5.03;59.66
58662;BME280;44432;49.786;22.760;2023-05-11T03:17:42;99763.33;;;5.01;59.76
58662;BME280;44432;49.786;22.760;2023-05-11T03:20:13;99767.32;;;4.99;60.08
58662;BME280;44432;49.786;22.760;2023-05-11T03:22:46;99770.78;;;5.00;60.15
58662;BME280;44432;49.786;22.760;2023-05-11T03:25:18;99769.57;;;4.99;60.20
58662;BME280;44432;49.786;22.760;2023-05-11T03:27:50;99771.77;;;5.00;60.35
58662;BME280;44432;49.786;22.760;2023-05-11T03:30:23;99771.08;;;5.00;60.55
58662;BME280;44432;49.786;22.760;2023-05-11T03:32:54;99770.06;;;5.00;60.58
58662;BME280;44432;49.786;22.760;2023-05-11T03:35:27;99772.09;;;5.00;60.48
58662;BME280;44432;49.786;22.760;2023-05-11T03:37:59;99773.44;;;5.01;60.60
58662;BME280;44432;49.786;22.760;2023-05-11T03:40:31;99771.96;;;5.03;60.70
58662;BME280;44432;49.786;22.760;2023-05-11T03:43:04;99772.58;;;5.05;60.52
58662;BME280;44432;49.786;22.760;2023-05-11T03:45:36;99776.64;;;5.08;60.61
58662;BME280;44432;49.786;22.760;2023-05-11T03:48:08;99772.90;;;5.12;60.59
58662;BME280;44432;49.786;22.760;2023-05-11T03:50:39;99771.75;;;5.16;60.63
58662;BME280;44432;49.786;22.760;2023-05-11T03:53:10;99776.50;;;5.22;60.65
58662;BME280;44432;49.786;22.760;2023-05-11T03:55:42;99778.80;;;5.30;60.62
58662;BME280;44432;49.786;22.760;2023-05-11T03:58:12;99780.69;;;5.37;60.57
58662;BME280;44432;49.786;22.760;2023-05-11T04:00:43;99780.00;;;5.41;60.47
58662;BME280;44432;49.786;22.760;2023-05-11T04:03:14;99782.30;;;5.51;60.48
58662;BME280;44432;49.786;22.760;2023-05-11T04:05:45;99779.04;;;5.58;60.45
58662;BME280;44432;49.786;22.760;2023-05-11T04:08:15;99781.67;;;5.66;60.18
58662;BME280;44432;49.786;22.760;2023-05-11T04:10:46;99783.64;;;5.73;60.11
58662;BME280;44432;49.786;22.760;2023-05-11T04:13:16;99787.10;;;5.78;59.78
58662;BME280;44432;49.786;22.760;2023-05-11T04:15:47;99787.94;;;5.83;59.83
58662;BME280;44432;49.786;22.760;2023-05-11T04:18:17;99783.21;;;5.90;59.68
58662;BME280;44432;49.786;22.760;2023-05-11T04:20:48;99788.08;;;5.98;59.74
58662;BME280;44432;49.786;22.760;2023-05-11T04:23:19;99791.64;;;6.07;59.99
58662;BME280;44432;49.786;22.760;2023-05-11T04:25:53;99796.09;;;6.17;59.98
58662;BME280;44432;49.786;22.760;2023-05-11T04:28:24;99794.98;;;6.28;59.50
58662;BME280;44432;49.786;22.760;2023-05-11T04:30:57;99793.88;;;6.38;59.15
58662;BME280;44432;49.786;22.760;2023-05-11T04:33:27;99793.63;;;6.48;59.01
58662;BME280;44432;49.786;22.760;2023-05-11T04:35:58;99797.09;;;6.56;58.72
58662;BME280;44432;49.786;22.760;2023-05-11T04:38:29;99797.45;;;6.61;58.48
58662;BME280;44432;49.786;22.760;2023-05-11T04:41:03;99789.59;;;6.65;58.17
58662;BME280;44432;49.786;22.760;2023-05-11T04:43:34;99788.00;;;6.71;58.25
58662;BME280;44432;49.786;22.760;2023-05-11T04:46:05;99789.50;;;6.78;58.50
58662;BME280;44432;49.786;22.760;2023-05-11T04:48:35;99788.89;;;6.84;58.76
58662;BME280;44432;49.786;22.760;2023-05-11T04:51:06;99783.83;;;6.91;58.68
58662;BME280;44432;49.786;22.760;2023-05-11T04:53:37;99787.97;;;6.97;58.53
58662;BME280;44432;49.786;22.760;2023-05-11T04:56:07;99793.70;;;7.05;58.35
58662;BME280;44432;49.786;22.760;2023-05-11T04:58:38;99791.51;;;7.13;58.70
58662;BME280;44432;49.786;22.760;2023-05-11T05:01:09;99792.08;;;7.21;58.26
58662;BME280;44432;49.786;22.760;2023-05-11T05:03:39;99793.79;;;7.28;58.23
58662;BME280;44432;49.786;22.760;2023-05-11T05:06:10;99792.27;;;7.38;58.24
58662;BME280;44432;49.786;22.760;2023-05-11T05:08:40;99790.36;;;7.48;57.65
58662;BME280;44432;49.786;22.760;2023-05-11T05:11:11;99794.46;;;7.58;57.50
58662;BME280;44432;49.786;22.760;2023-05-11T05:13:42;99797.01;;;7.66;57.53
58662;BME280;44432;49.786;22.760;2023-05-11T05:16:12;99804.70;;;7.77;57.59
58662;BME280;44432;49.786;22.760;2023-05-11T05:18:43;99799.08;;;7.87;57.58
58662;BME280;44432;49.786;22.760;2023-05-11T05:21:14;99802.63;;;7.99;57.09
58662;BME280;44432;49.786;22.760;2023-05-11T05:23:45;99801.36;;;8.10;57.06
58662;BME280;44432;49.786;22.760;2023-05-11T05:26:15;99802.44;;;8.22;56.72
58662;BME280;44432;49.786;22.760;2023-05-11T05:28:46;99803.09;;;8.34;56.66
58662;BME280;44432;49.786;22.760;2023-05-11T05:31:17;99801.71;;;8.44;56.42
58662;BME280;44432;49.786;22.760;2023-05-11T05:33:47;99800.88;;;8.56;56.09
58662;BME280;44432;49.786;22.760;2023-05-11T05:36:18;99800.93;;;8.66;55.73
58662;BME280;44432;49.786;22.760;2023-05-11T05:38:48;99803.04;;;8.70;55.33
58662;BME280;44432;49.786;22.760;2023-05-11T05:41:19;99802.09;;;8.72;55.11
58662;BME280;44432;49.786;22.760;2023-05-11T05:43:51;99802.65;;;8.79;54.94
58662;BME280;44432;49.786;22.760;2023-05-11T05:46:22;99802.89;;;8.87;54.98
58662;BME280;44432;49.786;22.760;2023-05-11T05:48:52;99801.48;;;8.97;55.11
58662;BME280;44432;49.786;22.760;2023-05-11T05:51:23;99802.35;;;9.04;55.07
58662;BME280;44432;49.786;22.760;2023-05-11T05:53:54;99802.06;;;9.08;54.73
58662;BME280;44432;49.786;22.760;2023-05-11T05:56:25;99804.48;;;9.11;54.71
58662;BME280;44432;49.786;22.760;2023-05-11T05:58:55;99805.61;;;9.16;54.64
58662;BME280;44432;49.786;22.760;2023-05-11T06:01:26;99805.20;;;9.24;54.74
58662;BME280;44432;49.786;22.760;2023-05-11T06:03:56;99804.05;;;9.34;54.77
58662;BME280;44432;49.786;22.760;2023-05-11T06:06:27;99808.42;;;9.42;54.63
58662;BME280;44432;49.786;22.760;2023-05-11T06:08:58;99804.94;;;9.48;54.42
58662;BME280;44432;49.786;22.760;2023-05-11T06:11:28;99801.39;;;9.57;54.70
58662;BME280;44432;49.786;22.760;2023-05-11T06:13:59;99801.63;;;9.63;54.42
58662;BME280;44432;49.786;22.760;2023-05-11T06:16:30;99804.38;;;9.69;54.33
58662;BME280;44432;49.786;22.760;2023-05-11T06:19:01;99805.35;;;9.75;54.27
58662;BME280;44432;49.786;22.760;2023-05-11T06:21:31;99804.63;;;9.82;54.29
58662;BME280;44432;49.786;22.760;2023-05-11T06:24:02;99803.45;;;9.89;54.20
58662;BME280;44432;49.786;22.760;2023-05-11T06:26:33;99804.22;;;9.98;54.22
58662;BME280;44432;49.786;22.760;2023-05-11T06:29:04;99805.66;;;10.10;54.21
58662;BME280;44432;49.786;22.760;2023-05-11T06:31:35;99803.70;;;10.22;54.10
58662;BME280;44432;49.786;22.760;2023-05-11T06:34:06;99811.10;;;10.36;54.07
58662;BME280;44432;49.786;22.760;2023-05-11T06:36:37;99809.05;;;10.49;53.76
58662;BME280;44432;49.786;22.760;2023-05-11T06:39:08;99809.29;;;10.61;53.56
58662;BME280;44432;49.786;22.760;2023-05-11T06:41:38;99814.11;;;10.73;53.36
58662;BME280;44432;49.786;22.760;2023-05-11T06:44:09;99813.23;;;10.85;53.27
58662;BME280;44432;49.786;22.760;2023-05-11T06:46:41;99811.42;;;10.95;53.06
58662;BME280;44432;49.786;22.760;2023-05-11T06:49:11;99810.79;;;11.04;52.80
58662;BME280;44432;49.786;22.760;2023-05-11T06:51:42;99808.19;;;11.14;52.80
58662;BME280;44432;49.786;22.760;2023-05-11T06:54:13;99808.27;;;11.26;52.68
58662;BME280;44432;49.786;22.760;2023-05-11T06:56:44;99804.08;;;11.34;52.48
58662;BME280;44432;49.786;22.760;2023-05-11T06:59:14;99804.23;;;11.42;52.21
58662;BME280;44432;49.786;22.760;2023-05-11T07:01:45;99802.40;;;11.55;52.13
58662;BME280;44432;49.786;22.760;2023-05-11T07:04:16;99802.27;;;11.69;52.08
58662;BME280;44432;49.786;22.760;2023-05-11T07:06:46;99797.70;;;11.82;52.16
58662;BME280;44432;49.786;22.760;2023-05-11T07:09:17;99801.36;;;11.96;51.83
58662;BME280;44432;49.786;22.760;2023-05-11T07:11:47;99796.41;;;12.04;51.34
58662;BME280;44432;49.786;22.760;2023-05-11T07:14:19;99800.58;;;12.14;51.25
58662;BME280;44432;49.786;22.760;2023-05-11T07:16:49;99799.78;;;12.27;51.19
58662;BME280;44432;49.786;22.760;2023-05-11T07:19:20;99794.38;;;12.47;51.09
58662;BME280;44432;49.786;22.760;2023-05-11T07:21:51;99799.98;;;12.71;50.72
58662;BME280;44432;49.786;22.760;2023-05-11T07:24:22;99797.20;;;12.95;50.38
58662;BME280;44432;49.786;22.760;2023-05-11T07:26:52;99789.73;;;13.14;49.98
58662;BME280;44432;49.786;22.760;2023-05-11T07:29:24;99795.29;;;13.34;49.46
58662;BME280;44432;49.786;22.760;2023-05-11T07:31:54;99790.67;;;13.51;48.88
58662;BME280;44432;49.786;22.760;2023-05-11T07:34:25;99785.54;;;13.65;48.70
58662;BME280;44432;49.786;22.760;2023-05-11T07:36:56;99790.92;;;13.82;48.38
58662;BME280;44432;49.786;22.760;2023-05-11T07:39:26;99789.09;;;13.96;47.90
58662;BME280;44432;49.786;22.760;2023-05-11T07:41:57;99791.70;;;14.11;47.63
58662;BME280;44432;49.786;22.760;2023-05-11T07:44:28;99793.56;;;14.22;47.32
58662;BME280;44432;49.786;22.760;2023-05-11T07:46:59;99784.79;;;14.31;47.10
58662;BME280;44432;49.786;22.760;2023-05-11T07:49:30;99786.11;;;14.40;46.83
58662;BME280;44432;49.786;22.760;2023-05-11T07:52:00;99791.38;;;14.50;46.34
58662;BME280;44432;49.786;22.760;2023-05-11T07:54:31;99790.63;;;14.56;45.86
58662;BME280;44432;49.786;22.760;2023-05-11T07:57:02;99792.30;;;14.62;46.03
58662;BME280;44432;49.786;22.760;2023-05-11T07:59:33;99789.20;;;14.67;45.73
58662;BME280;44432;49.786;22.760;2023-05-11T08:02:04;99793.09;;;14.72;45.70
58662;BME280;44432;49.786;22.760;2023-05-11T08:04:35;99790.06;;;14.81;45.74
58662;BME280;44432;49.786;22.760;2023-05-11T08:07:06;99787.67;;;14.91;45.53
58662;BME280;44432;49.786;22.760;2023-05-11T08:09:37;99788.61;;;15.01;45.44
58662;BME280;44432;49.786;22.760;2023-05-11T08:12:08;99789.61;;;15.16;45.40
58662;BME280;44432;49.786;22.760;2023-05-11T08:14:38;99790.09;;;15.29;45.27
58662;BME280;44432;49.786;22.760;2023-05-11T08:17:11;99790.55;;;15.42;44.97
58662;BME280;44432;49.786;22.760;2023-05-11T08:19:41;99786.60;;;15.53;44.70
58662;BME280;44432;49.786;22.760;2023-05-11T08:22:12;99785.83;;;15.66;44.24
58662;BME280;44432;49.786;22.760;2023-05-11T08:24:43;99779.97;;;15.81;43.93
58662;BME280;44432;49.786;22.760;2023-05-11T08:27:14;99780.80;;;15.95;43.88
58662;BME280;44432;49.786;22.760;2023-05-11T08:29:45;99776.16;;;16.09;43.13
58662;BME280;44432;49.786;22.760;2023-05-11T08:32:15;99778.77;;;16.19;43.02
58662;BME280;44432;49.786;22.760;2023-05-11T08:34:46;99775.70;;;16.30;42.61
58662;BME280;44432;49.786;22.760;2023-05-11T08:37:17;99769.55;;;16.36;42.35
58662;BME280;44432;49.786;22.760;2023-05-11T08:39:48;99767.30;;;16.38;42.11
58662;BME280;44432;49.786;22.760;2023-05-11T08:42:20;99765.19;;;16.41;41.71
58662;BME280;44432;49.786;22.760;2023-05-11T08:44:55;99761.88;;;16.50;41.74
58662;BME280;44432;49.786;22.760;2023-05-11T08:47:27;99763.23;;;16.59;41.59
58662;BME280;44432;49.786;22.760;2023-05-11T08:49:58;99764.98;;;16.68;41.05
58662;BME280;44432;49.786;22.760;2023-05-11T08:52:29;99767.08;;;16.76;40.63
58662;BME280;44432;49.786;22.760;2023-05-11T08:54:59;99762.80;;;16.78;39.89
58662;BME280;44432;49.786;22.760;2023-05-11T08:57:31;99759.05;;;16.80;39.53
58662;BME280;44432;49.786;22.760;2023-05-11T09:00:04;99760.22;;;16.86;39.49
58662;BME280;44432;49.786;22.760;2023-05-11T09:02:35;99755.23;;;16.94;39.28
58662;BME280;44432;49.786;22.760;2023-05-11T09:05:07;99754.73;;;17.00;39.23
58662;BME280;44432;49.786;22.760;2023-05-11T09:07:39;99754.40;;;17.06;39.17
58662;BME280;44432;49.786;22.760;2023-05-11T09:10:11;99753.00;;;17.12;38.78
58662;BME280;44432;49.786;22.760;2023-05-11T09:12:41;99748.73;;;17.15;38.59
58662;BME280;44432;49.786;22.760;2023-05-11T09:15:12;99744.16;;;17.20;38.73
58662;BME280;44432;49.786;22.760;2023-05-11T09:17:43;99744.15;;;17.27;38.90
58662;BME280;44432;49.786;22.760;2023-05-11T09:20:14;99741.52;;;17.32;38.84
58662;BME280;44432;49.786;22.760;2023-05-11T09:22:46;99740.16;;;17.39;38.54
58662;BME280;44432;49.786;22.760;2023-05-11T09:25:18;99739.77;;;17.41;38.10
58662;BME280;44432;49.786;22.760;2023-05-11T09:27:48;99739.42;;;17.43;38.01
58662;BME280;44432;49.786;22.760;2023-05-11T09:30:21;99734.42;;;17.49;37.89
58662;BME280;44432;49.786;22.760;2023-05-11T09:32:53;99733.37;;;17.53;37.70
58662;BME280;44432;49.786;22.760;2023-05-11T09:35:25;99729.37;;;17.57;37.45
58662;BME280;44432;49.786;22.760;2023-05-11T09:38:04;99728.19;;;17.61;37.33
58662;BME280;44432;49.786;22.760;2023-05-11T09:40:38;99725.91;;;17.65;37.01
58662;BME280;44432;49.786;22.760;2023-05-11T09:43:18;99723.45;;;17.70;36.75
58662;BME280;44432;49.786;22.760;2023-05-11T09:45:50;99722.02;;;17.76;37.05
58662;BME280;44432;49.786;22.760;2023-05-11T09:48:31;99714.60;;;17.84;37.04
58662;BME280;44432;49.786;22.760;2023-05-11T09:51:04;99711.85;;;17.91;37.02
58662;BME280;44432;49.786;22.760;2023-05-11T09:53:37;99715.17;;;18.01;37.00
58662;BME280;44432;49.786;22.760;2023-05-11T09:56:10;99721.11;;;18.11;36.45
58662;BME280;44432;49.786;22.760;2023-05-11T09:58:48;99710.89;;;18.15;36.23
58662;BME280;44432;49.786;22.760;2023-05-11T10:01:28;99710.38;;;18.22;35.83
58662;BME280;44432;49.786;22.760;2023-05-11T10:04:01;99710.94;;;18.30;35.68
58662;BME280;44432;49.786;22.760;2023-05-11T10:06:49;99705.85;;;18.41;35.54
58662;BME280;44432;49.786;22.760;2023-05-11T10:09:23;99705.23;;;18.55;35.43
58662;BME280;44432;49.786;22.760;2023-05-11T10:11:56;99704.05;;;18.68;34.86
58662;BME280;44432;49.786;22.760;2023-05-11T10:14:27;99698.25;;;18.76;34.33
58662;BME280;44432;49.786;22.760;2023-05-11T10:17:02;99692.52;;;18.84;34.27
58662;BME280;44432;49.786;22.760;2023-05-11T10:19:33;99685.94;;;18.96;34.62
58662;BME280;44432;49.786;22.760;2023-05-11T10:22:05;99684.20;;;19.10;34.44
58662;BME280;44432;49.786;22.760;2023-05-11T10:24:36;99683.98;;;19.17;34.18
58662;BME280;44432;49.786;22.760;2023-05-11T10:27:08;99678.29;;;19.24;34.45
58662;BME280;44432;49.786;22.760;2023-05-11T10:29:39;99678.95;;;19.39;34.34
58662;BME280;44432;49.786;22.760;2023-05-11T10:32:12;99673.20;;;19.52;33.99
58662;BME280;44432;49.786;22.760;2023-05-11T10:34:43;99670.58;;;19.61;34.05
58662;BME280;44432;49.786;22.760;2023-05-11T10:37:15;99666.11;;;19.70;33.39
58662;BME280;44432;49.786;22.760;2023-05-11T10:39:46;99669.98;;;19.72;33.18
58662;BME280;44432;49.786;22.760;2023-05-11T10:42:41;99670.25;;;19.81;32.97
58662;BME280;44432;49.786;22.760;2023-05-11T10:45:21;99666.71;;;19.98;32.41
58662;BME280;44432;49.786;22.760;2023-05-11T10:48:13;99664.68;;;20.05;32.28
58662;BME280;44432;49.786;22.760;2023-05-11T10:51:03;99663.71;;;20.03;32.03
58662;BME280;44432;49.786;22.760;2023-05-11T10:53:55;99661.84;;;20.06;32.09
58662;BME280;44432;49.786;22.760;2023-05-11T10:56:45;99660.79;;;20.14;31.56
58662;BME280;44432;49.786;22.760;2023-05-11T10:59:37;99660.37;;;20.23;31.46
58662;BME280;44432;49.786;22.760;2023-05-11T11:02:11;99656.84;;;20.34;31.25
58662;BME280;44432;49.786;22.760;2023-05-11T11:04:48;99657.27;;;20.41;30.52
58662;BME280;44432;49.786;22.760;2023-05-11T11:07:19;99657.24;;;20.39;30.29
58662;BME280;44432;49.786;22.760;2023-05-11T11:09:55;99656.26;;;20.28;30.38
58662;BME280;44432;49.786;22.760;2023-05-11T11:12:28;99652.27;;;20.17;30.13
58662;BME280;44432;49.786;22.760;2023-05-11T11:15:00;99651.31;;;20.18;29.79
58662;BME280;44432;49.786;22.760;2023-05-11T11:17:33;99644.08;;;20.26;29.77
58662;BME280;44432;49.786;22.760;2023-05-11T11:20:05;99641.09;;;20.35;30.04
58662;BME280;44432;49.786;22.760;2023-05-11T11:22:46;99637.36;;;20.45;29.88
58662;BME280;44432;49.786;22.760;2023-05-11T11:25:52;99643.10;;;20.59;29.89
58662;BME280;44432;49.786;22.760;2023-05-11T11:28:23;99642.18;;;20.73;29.09
58662;BME280;44432;49.786;22.760;2023-05-11T11:33:55;99639.98;;;20.67;29.14
58662;BME280;44432;49.786;22.760;2023-05-11T11:37:00;99636.06;;;20.70;29.01
58662;BME280;44432;49.786;22.760;2023-05-11T11:42:38;99635.48;;;21.09;28.80
58662;BME280;44432;49.786;22.760;2023-05-11T11:45:30;99635.61;;;21.19;28.14
58662;BME280;44432;49.786;22.760;2023-05-11T11:48:12;99629.62;;;21.22;28.18
58662;BME280;44432;49.786;22.760;2023-05-11T11:50:46;99630.42;;;21.23;27.94
58662;BME280;44432;49.786;22.760;2023-05-11T11:56:47;99626.48;;;21.31;28.27
58662;BME280;44432;49.786;22.760;2023-05-11T11:59:18;99622.21;;;21.49;28.18
58662;BME280;44432;49.786;22.760;2023-05-11T12:01:51;99629.14;;;21.63;27.55
58662;BME280;44432;49.786;22.760;2023-05-11T12:04:42;99629.40;;;21.64;27.46
58662;BME280;44432;49.786;22.760;2023-05-11T12:07:15;99629.96;;;21.69;27.48
58662;BME280;44432;49.786;22.760;2023-05-11T12:09:48;99625.91;;;21.74;27.31
58662;BME280;44432;49.786;22.760;2023-05-11T12:12:21;99626.33;;;21.77;26.98
58662;BME280;44432;49.786;22.760;2023-05-11T12:14:51;99620.62;;;21.78;26.99
58662;BME280;44432;49.786;22.760;2023-05-11T12:17:27;99619.31;;;21.81;26.75
58662;BME280;44432;49.786;22.760;2023-05-11T12:20:14;99612.23;;;21.60;26.59
58662;BME280;44432;49.786;22.760;2023-05-11T12:22:45;99605.99;;;21.47;26.86
58662;BME280;44432;49.786;22.760;2023-05-11T12:25:18;99609.55;;;21.45;26.89
58662;BME280;44432;49.786;22.760;2023-05-11T12:27:50;99607.86;;;21.39;26.77
58662;BME280;44432;49.786;22.760;2023-05-11T12:30:24;99609.30;;;21.29;26.71
58662;BME280;44432;49.786;22.760;2023-05-11T12:32:56;99603.52;;;21.11;26.61
58662;BME280;44432;49.786;22.760;2023-05-11T12:35:28;99602.34;;;20.97;26.73
58662;BME280;44432;49.786;22.760;2023-05-11T12:38:00;99598.50;;;20.83;27.08
58662;BME280;44432;49.786;22.760;2023-05-11T12:40:32;99599.23;;;20.76;27.25
58662;BME280;44432;49.786;22.760;2023-05-11T12:43:04;99600.52;;;20.75;27.45
58662;BME280;44432;49.786;22.760;2023-05-11T12:45:34;99604.73;;;20.74;27.19
58662;BME280;44432;49.786;22.760;2023-05-11T12:48:06;99601.20;;;20.66;27.03
58662;BME280;44432;49.786;22.760;2023-05-11T12:50:41;99594.98;;;20.60;27.03
58662;BME280;44432;49.786;22.760;2023-05-11T12:53:16;99594.32;;;20.66;27.34
58662;BME280;44432;49.786;22.760;2023-05-11T12:55:57;99595.16;;;20.77;27.68
58662;BME280;44432;49.786;22.760;2023-05-11T12:58:36;99592.91;;;20.87;27.39
58662;BME280;44432;49.786;22.760;2023-05-11T13:01:07;99591.88;;;20.97;27.20
58662;BME280;44432;49.786;22.760;2023-05-11T13:03:38;99582.41;;;20.98;26.94
58662;BME280;44432;49.786;22.760;2023-05-11T13:06:10;99576.67;;;20.94;27.01
58662;BME280;44432;49.786;22.760;2023-05-11T13:08:45;99579.46;;;20.82;27.07
58662;BME280;44432;49.786;22.760;2023-05-11T13:11:20;99584.70;;;20.74;27.15
58662;BME280;44432;49.786;22.760;2023-05-11T13:13:53;99577.73;;;20.70;27.15
58662;BME280;44432;49.786;22.760;2023-05-11T13:16:30;99579.62;;;20.67;27.03
58662;BME280;44432;49.786;22.760;2023-05-11T13:19:03;99583.38;;;20.66;26.99
58662;BME280;44432;49.786;22.760;2023-05-11T13:21:34;99576.35;;;20.65;27.13
58662;BME280;44432;49.786;22.760;2023-05-11T13:24:05;99580.16;;;20.60;26.98
58662;BME280;44432;49.786;22.760;2023-05-11T13:26:36;99575.56;;;20.49;26.70
58662;BME280;44432;49.786;22.760;2023-05-11T13:29:06;99571.11;;;20.37;26.76
58662;BME280;44432;49.786;22.760;2023-05-11T13:31:44;99566.64;;;20.35;26.68
58662;BME280;44432;49.786;22.760;2023-05-11T13:34:14;99569.52;;;20.43;26.84
58662;BME280;44432;49.786;22.760;2023-05-11T13:36:46;99565.91;;;20.48;26.72